Weather at Emmonak Airport

Public forecast

Using degrees Fahrenheit for public forecast. Weather courtesy of forecast.io.

Closest aviation weather report (METAR) to Emmonak Airport

Closest report is Mountain Village Airport, 47.2 nm (87.4 km) SSE.

2024/03/01 15:56 (retrieved 43 minutes ago)

PAMO 011556Z AUTO 04011KT 10SM CLR M23/M25 A3043 RMK AO2 SNE17 SLP319 P0000 T12281250 FZRANO

Closest aviation forecast (TAF) to Emmonak Airport

Closest forecast is Nome Airport, 106.7 nm (197.6 km) NNW.

2024/03/01 12:22 (retrieved 4 hours ago)

TAF PAOM 011120Z 0112/0212 VRB03KT P6SM SCT090 FM020600 05011KT P6SM BKN050